createdAt,value
2018-07-12T00:00:32.535Z,79.32
2018-07-12T00:03:29.665Z,78.99
2018-07-12T00:06:27.747Z,79.34
2018-07-12T00:09:25.149Z,79.16
2018-07-12T00:12:22.462Z,78.56
2018-07-12T00:15:20.510Z,78.72
2018-07-12T00:18:18.613Z,78.56
2018-07-12T00:21:15.585Z,78.81
2018-07-12T00:24:13.543Z,78.56
2018-07-12T00:27:10.978Z,78.43
2018-07-12T00:30:08.148Z,78.81
2018-07-12T00:33:06.001Z,78.24
2018-07-12T00:36:03.827Z,78.73
2018-07-12T00:39:00.845Z,78.61
2018-07-12T00:41:58.387Z,78.46
2018-07-12T00:44:55.605Z,79.06
2018-07-12T00:47:52.618Z,79.03
2018-07-12T00:50:49.902Z,78.54
2018-07-12T00:53:46.730Z,78.32
2018-07-12T00:56:43.899Z,78.91
2018-07-12T00:59:40.951Z,78.86
2018-07-12T01:02:38.075Z,78.67
2018-07-12T01:05:35.977Z,78.79
2018-07-12T01:08:33.837Z,79.01
2018-07-12T01:11:31.479Z,79.13
2018-07-12T01:14:28.823Z,79.21
2018-07-12T01:17:26.503Z,78.92
2018-07-12T01:20:24.082Z,79.40
2018-07-12T01:23:21.265Z,78.77
2018-07-12T01:26:18.735Z,78.94
2018-07-12T01:29:15.874Z,78.96
2018-07-12T01:32:12.935Z,79.07
2018-07-12T01:35:10.950Z,78.67
2018-07-12T01:38:08.875Z,78.54
2018-07-12T01:41:06.554Z,78.75
2018-07-12T01:44:04.302Z,78.44
2018-07-12T01:47:02.358Z,78.67
2018-07-12T01:49:59.429Z,78.83
2018-07-12T01:52:56.473Z,78.50
2018-07-12T01:55:54.675Z,78.73
2018-07-12T01:58:52.214Z,79.34
2018-07-12T02:01:49.254Z,78.40
2018-07-12T02:04:47.045Z,78.87
2018-07-12T02:07:45.006Z,78.94
2018-07-12T02:10:42.382Z,79.25
2018-07-12T02:13:39.609Z,79.29
2018-07-12T02:16:37.367Z,78.55
2018-07-12T02:19:34.775Z,78.56
2018-07-12T02:22:32.823Z,78.75
2018-07-12T02:25:30.482Z,79.35
2018-07-12T02:28:27.733Z,78.99
2018-07-12T02:31:24.726Z,78.87
2018-07-12T02:34:22.142Z,79.34
2018-07-12T02:37:19.430Z,78.80
2018-07-12T02:40:16.471Z,79.16
2018-07-12T02:43:13.734Z,79.15
2018-07-12T02:46:11.832Z,79.26
2018-07-12T02:49:10.116Z,78.98
2018-07-12T02:52:07.384Z,79.95
2018-07-12T02:55:04.503Z,79.16
2018-07-12T02:58:01.579Z,79.27
2018-07-12T03:00:59.407Z,79.35
2018-07-12T03:03:56.945Z,80.17
2018-07-12T03:06:54.029Z,79.54
2018-07-12T03:09:51.707Z,80.18
2018-07-12T03:12:49.198Z,79.60
2018-07-12T03:15:46.575Z,79.18
2018-07-12T03:18:43.906Z,79.72
2018-07-12T03:21:40.898Z,79.71
2018-07-12T03:24:38.335Z,79.79
2018-07-12T03:27:35.647Z,79.46
2018-07-12T03:30:32.941Z,79.87
2018-07-12T03:33:30.078Z,78.92
2018-07-12T03:36:27.358Z,78.88
2018-07-12T03:39:24.498Z,79.11
2018-07-12T03:42:21.382Z,79.11
2018-07-12T03:45:18.399Z,79.33
2018-07-12T03:48:16.242Z,78.98
2018-07-12T03:51:13.729Z,78.99
2018-07-12T03:54:11.471Z,79.04
2018-07-12T03:57:08.563Z,79.13
2018-07-12T04:00:06.534Z,78.98
2018-07-12T04:03:04.074Z,79.22
2018-07-12T04:06:01.862Z,79.12
2018-07-12T04:08:59.542Z,78.96
2018-07-12T04:11:56.903Z,78.42
2018-07-12T04:14:54.419Z,78.55
2018-07-12T04:17:51.655Z,78.61
2018-07-12T04:20:49.675Z,78.89
2018-07-12T04:23:47.679Z,77.96
2018-07-12T04:26:44.809Z,78.60
2018-07-12T04:29:41.847Z,78.58
2018-07-12T04:32:39.765Z,78.12
2018-07-12T04:35:36.911Z,78.96
2018-07-12T04:38:34.975Z,77.78
2018-07-12T04:41:32.951Z,78.18
2018-07-12T04:44:29.882Z,77.72
2018-07-12T04:47:27.259Z,77.98
2018-07-12T04:50:25.210Z,77.88
2018-07-12T04:53:22.675Z,78.02
2018-07-12T04:56:20.103Z,77.84
2018-07-12T04:59:17.524Z,77.14
2018-07-12T05:02:14.723Z,77.26
2018-07-12T05:05:12.316Z,77.82
2018-07-12T05:08:09.878Z,77.74
2018-07-12T05:11:07.059Z,76.36
2018-07-12T05:14:05.221Z,76.61
2018-07-12T05:17:02.578Z,76.69
2018-07-12T05:20:00.283Z,76.76
2018-07-12T05:22:57.718Z,77.12
2018-07-12T05:25:54.857Z,77.27
2018-07-12T05:28:52.335Z,76.52
2018-07-12T05:31:49.462Z,75.94
2018-07-12T05:34:46.760Z,75.28
2018-07-12T05:37:44.413Z,75.27
2018-07-12T05:40:41.658Z,75.27
2018-07-12T05:43:39.806Z,75.20
2018-07-12T05:46:37.308Z,74.95
2018-07-12T05:49:34.594Z,75.47
2018-07-12T05:52:31.722Z,75.17
2018-07-12T05:55:29.806Z,75.21
2018-07-12T05:58:27.390Z,73.77
2018-07-12T06:01:30.749Z,73.69
2018-07-12T06:04:27.811Z,74.06
2018-07-12T06:07:31.958Z,73.17
2018-07-12T06:10:30.025Z,72.96
2018-07-12T06:13:27.280Z,70.97
2018-07-12T06:16:24.539Z,71.60
2018-07-12T06:19:21.971Z,70.62
2018-07-12T06:22:20.001Z,71.91
2018-07-12T06:25:17.697Z,72.92
2018-07-12T06:28:15.875Z,73.23
2018-07-12T06:31:13.973Z,72.28
2018-07-12T06:34:11.207Z,71.76
2018-07-12T06:37:08.987Z,72.05
2018-07-12T06:40:06.785Z,72.03
2018-07-12T06:43:04.364Z,70.52
2018-07-12T06:46:01.559Z,69.55
2018-07-12T06:48:58.957Z,68.62
2018-07-12T06:51:56.796Z,69.04
2018-07-12T06:54:54.879Z,68.79
2018-07-12T06:57:52.052Z,69.40
2018-07-12T07:00:49.279Z,67.82
2018-07-12T07:03:47.207Z,63.99
2018-07-12T07:06:44.506Z,65.00
2018-07-12T07:25:47.372Z,62.56
2018-07-12T07:28:45.531Z,49.81
2018-07-12T07:31:43.567Z,46.29
2018-07-12T07:34:41.782Z,47.46
2018-07-12T07:37:38.928Z,47.28
2018-07-12T07:40:36.245Z,43.60
2018-07-12T07:43:33.415Z,42.26
2018-07-12T07:46:30.600Z,44.83
2018-07-12T07:49:27.802Z,44.17
2018-07-12T07:52:25.505Z,45.82
2018-07-12T07:55:22.884Z,47.26
2018-07-12T07:58:20.365Z,46.05
2018-07-12T08:01:18.544Z,43.40
2018-07-12T08:04:16.497Z,43.15
2018-07-12T08:07:13.745Z,41.67
2018-07-12T08:10:11.151Z,44.45
2018-07-12T08:13:08.406Z,45.94
2018-07-12T08:16:05.921Z,47.62
2018-07-12T08:19:03.238Z,48.83
2018-07-12T08:22:00.569Z,48.79
2018-07-12T08:24:58.606Z,47.55
2018-07-12T08:28:02.747Z,46.29
2018-07-12T08:30:59.867Z,45.36
2018-07-12T08:33:56.846Z,45.57
2018-07-12T08:36:54.019Z,44.39
2018-07-12T08:39:51.961Z,42.78
2018-07-12T08:42:49.479Z,41.82
2018-07-12T08:45:46.695Z,41.33
2018-07-12T08:48:44.690Z,42.93
2018-07-12T08:51:42.685Z,44.12
2018-07-12T08:54:40.273Z,45.64
2018-07-12T08:57:37.979Z,45.54
2018-07-12T09:00:35.658Z,43.17
2018-07-12T09:03:32.889Z,41.65
2018-07-12T09:06:30.455Z,40.15
2018-07-12T09:09:28.874Z,39.87
2018-07-12T09:12:26.199Z,38.55
2018-07-12T09:15:23.810Z,38.41
2018-07-12T09:18:21.247Z,37.74
2018-07-12T09:21:18.529Z,35.34
2018-07-12T09:24:16.751Z,41.03
2018-07-12T09:27:15.208Z,41.22
2018-07-12T09:30:13.038Z,41.44
2018-07-12T09:33:10.810Z,44.21
2018-07-12T09:36:08.142Z,46.68
2018-07-12T09:39:05.605Z,47.41
2018-07-12T09:42:03.387Z,44.25
2018-07-12T09:45:01.429Z,40.86
2018-07-12T09:47:58.862Z,37.98
2018-07-12T09:50:56.302Z,36.67
2018-07-12T09:53:55.114Z,36.01
2018-07-12T09:57:04.394Z,37.03
2018-07-12T10:00:01.999Z,39.47
2018-07-12T10:03:06.246Z,38.45
2018-07-12T10:06:06.471Z,39.92
2018-07-12T10:09:07.153Z,38.13
2018-07-12T10:12:10.759Z,40.18
2018-07-12T10:15:14.856Z,40.58
2018-07-12T10:18:18.707Z,43.46
2018-07-12T10:21:16.232Z,41.57
2018-07-12T10:24:14.480Z,38.03
2018-07-12T10:27:12.244Z,36.63
2018-07-12T10:30:09.988Z,35.37
2018-07-12T10:33:07.381Z,36.95
2018-07-12T10:36:04.564Z,38.35
2018-07-12T10:39:01.691Z,38.65
2018-07-12T10:41:59.603Z,37.65
2018-07-12T10:44:57.666Z,39.09
2018-07-12T10:47:54.730Z,43.12
2018-07-12T10:50:52.270Z,44.78
2018-07-12T10:53:49.650Z,45.07
2018-07-12T10:56:47.000Z,43.88
2018-07-12T10:59:44.327Z,40.13
2018-07-12T11:02:41.328Z,38.07
2018-07-12T11:05:39.378Z,37.19
2018-07-12T11:08:37.609Z,39.82
2018-07-12T11:11:34.926Z,42.14
2018-07-12T11:14:32.796Z,44.21
2018-07-12T11:17:30.177Z,45.27
2018-07-12T11:20:27.303Z,43.67
2018-07-12T11:23:25.100Z,40.30
2018-07-12T11:26:22.977Z,37.43
2018-07-12T11:29:23.547Z,37.04
2018-07-12T11:32:24.038Z,37.49
2018-07-12T11:35:21.166Z,43.73
2018-07-12T11:38:18.631Z,44.06
2018-07-12T11:41:15.831Z,44.41
2018-07-12T11:44:13.907Z,42.64
2018-07-12T11:47:11.062Z,42.50
2018-07-12T11:50:08.652Z,43.10
2018-07-12T11:53:06.512Z,42.39
2018-07-12T11:56:04.038Z,43.19
2018-07-12T11:59:01.379Z,44.12
2018-07-12T12:01:58.783Z,42.52
2018-07-12T12:04:56.071Z,41.72
2018-07-12T12:07:53.775Z,40.55
2018-07-12T12:10:52.118Z,41.65
2018-07-12T12:13:49.523Z,42.83
2018-07-12T12:16:46.970Z,43.46
2018-07-12T12:19:44.243Z,43.05
2018-07-12T12:22:41.953Z,44.49
2018-07-12T12:25:39.810Z,45.55
2018-07-12T12:28:37.397Z,47.06
2018-07-12T12:31:35.226Z,46.69
2018-07-12T12:34:32.798Z,48.42
2018-07-12T12:37:30.830Z,48.68
2018-07-12T12:40:28.427Z,49.02
2018-07-12T12:43:25.965Z,48.52
2018-07-12T12:46:24.584Z,47.99
2018-07-12T12:49:22.555Z,48.14
2018-07-12T12:52:20.078Z,47.77
2018-07-12T12:55:17.646Z,47.93
2018-07-12T12:58:15.295Z,46.37
2018-07-12T13:01:12.435Z,47.02
2018-07-12T13:04:09.775Z,46.92
2018-07-12T13:07:06.992Z,47.27
2018-07-12T13:10:04.596Z,46.90
2018-07-12T13:13:02.331Z,47.01
2018-07-12T13:15:59.852Z,47.58
2018-07-12T13:18:57.497Z,47.54
2018-07-12T13:21:54.999Z,46.31
2018-07-12T13:24:52.141Z,45.98
2018-07-12T13:27:49.816Z,46.84
2018-07-12T13:30:47.114Z,46.79
2018-07-12T13:33:44.236Z,46.90
2018-07-12T13:36:42.003Z,46.66
2018-07-12T13:39:39.195Z,46.94
2018-07-12T13:42:37.155Z,45.45
2018-07-12T13:45:34.226Z,45.14
2018-07-12T13:48:31.522Z,47.50
2018-07-12T13:51:29.004Z,47.17
2018-07-12T13:54:27.857Z,47.65
2018-07-12T13:57:25.049Z,47.94
2018-07-12T14:00:22.509Z,47.37
2018-07-12T14:03:19.871Z,45.55
2018-07-12T14:06:17.822Z,45.41
2018-07-12T14:09:15.981Z,46.20
2018-07-12T14:12:13.373Z,46.99
2018-07-12T14:15:10.915Z,45.24
2018-07-12T14:18:08.455Z,45.35
2018-07-12T14:21:06.122Z,44.24
2018-07-12T14:24:03.917Z,44.71
2018-07-12T14:27:01.110Z,44.52
2018-07-12T14:29:58.654Z,45.43
2018-07-12T14:32:56.099Z,45.92
2018-07-12T14:35:54.254Z,46.03
2018-07-12T14:38:51.732Z,46.84
2018-07-12T14:41:49.108Z,46.48
2018-07-12T14:44:46.339Z,45.89
2018-07-12T14:47:43.910Z,46.40
2018-07-12T14:50:42.014Z,47.05
2018-07-12T14:53:39.336Z,46.78
2018-07-12T14:56:36.890Z,46.57
2018-07-12T14:59:34.651Z,47.10
2018-07-12T15:02:32.708Z,47.82
2018-07-12T15:05:30.811Z,47.94
2018-07-12T15:08:28.901Z,48.08
2018-07-12T15:11:25.974Z,48.61
2018-07-12T15:14:23.240Z,49.09
2018-07-12T15:17:20.910Z,48.71
2018-07-12T15:20:18.199Z,49.74
2018-07-12T15:23:15.422Z,51.08
2018-07-12T15:26:12.553Z,51.04
2018-07-12T15:29:10.121Z,51.42
2018-07-12T15:32:08.134Z,51.18
2018-07-12T15:35:06.186Z,50.91
2018-07-12T15:38:03.449Z,51.41
2018-07-12T15:41:00.968Z,51.60
2018-07-12T15:43:58.259Z,50.96
2018-07-12T15:46:55.528Z,51.53
2018-07-12T15:49:52.592Z,51.37
2018-07-12T15:52:49.863Z,51.71
2018-07-12T15:55:47.959Z,51.33
2018-07-12T15:58:45.189Z,51.07
2018-07-12T16:01:43.135Z,50.50
2018-07-12T16:04:40.814Z,49.69
2018-07-12T16:07:38.881Z,49.88
2018-07-12T16:10:36.827Z,49.61
2018-07-12T16:13:34.511Z,49.41
2018-07-12T16:16:32.455Z,49.51
2018-07-12T16:19:29.851Z,48.79
2018-07-12T16:22:27.152Z,49.34
2018-07-12T16:25:25.287Z,48.91
2018-07-12T16:28:22.756Z,48.68
2018-07-12T16:31:20.113Z,49.21
2018-07-12T16:34:18.360Z,49.13
2018-07-12T16:37:15.825Z,49.22
2018-07-12T16:40:13.275Z,49.60
2018-07-12T16:43:11.186Z,49.53
2018-07-12T16:46:08.432Z,50.67
2018-07-12T16:49:06.703Z,50.96
2018-07-12T16:52:04.249Z,52.17
2018-07-12T16:55:02.254Z,51.88
2018-07-12T16:57:59.269Z,51.20
2018-07-12T17:00:57.402Z,51.08
2018-07-12T17:03:55.248Z,51.25
2018-07-12T17:06:52.386Z,50.53
2018-07-12T17:09:50.418Z,50.49
2018-07-12T17:12:48.579Z,50.63
2018-07-12T17:15:46.350Z,50.78
2018-07-12T17:18:44.310Z,50.29
2018-07-12T17:21:41.574Z,49.30
2018-07-12T17:24:39.747Z,49.91
2018-07-12T17:27:37.774Z,49.01
2018-07-12T17:30:35.613Z,49.81
2018-07-12T17:33:33.350Z,49.58
2018-07-12T17:36:31.436Z,50.07
2018-07-12T17:39:29.504Z,49.87
2018-07-12T17:42:27.245Z,50.29
2018-07-12T17:45:24.468Z,49.64
2018-07-12T17:48:22.399Z,50.12
2018-07-12T17:51:19.886Z,50.82
2018-07-12T17:54:17.425Z,51.28
2018-07-12T17:57:15.168Z,50.27
2018-07-12T18:00:12.902Z,50.33
2018-07-12T18:03:10.274Z,49.72
2018-07-12T18:06:08.137Z,48.99
2018-07-12T18:09:05.341Z,49.51
2018-07-12T18:12:02.642Z,49.60
2018-07-12T18:15:00.593Z,50.54
2018-07-12T18:17:57.772Z,49.74
2018-07-12T18:20:55.217Z,49.77
2018-07-12T18:23:52.620Z,48.83
2018-07-12T18:26:50.145Z,49.68
2018-07-12T18:29:47.822Z,49.08
2018-07-12T18:32:45.350Z,49.07
2018-07-12T18:35:43.434Z,50.23
2018-07-12T18:38:41.401Z,48.96
2018-07-12T18:41:39.079Z,49.76
2018-07-12T18:44:37.074Z,49.36
2018-07-12T18:47:34.828Z,49.85
2018-07-12T18:50:32.200Z,50.16
2018-07-12T18:53:29.766Z,50.81
2018-07-12T18:56:27.526Z,50.92
2018-07-12T18:59:25.209Z,50.28
2018-07-12T19:02:23.334Z,52.36
2018-07-12T19:05:20.719Z,52.73
2018-07-12T19:08:18.387Z,51.65
2018-07-12T19:11:16.560Z,52.46
2018-07-12T19:14:14.270Z,52.40
2018-07-12T19:17:11.561Z,53.49
2018-07-12T19:20:08.582Z,53.81
2018-07-12T19:23:06.848Z,55.25
2018-07-12T19:26:04.201Z,57.33
2018-07-12T19:29:01.569Z,57.69
2018-07-12T19:31:59.020Z,58.89
2018-07-12T19:34:56.765Z,58.66
2018-07-12T19:37:54.346Z,58.55
2018-07-12T19:40:51.543Z,58.33
2018-07-12T19:43:49.119Z,59.68
2018-07-12T19:46:47.254Z,60.25
2018-07-12T19:49:44.192Z,59.98
2018-07-12T19:52:42.362Z,60.96
2018-07-12T19:55:39.711Z,61.50
2018-07-12T19:58:37.414Z,61.63
2018-07-12T20:01:34.668Z,60.14
2018-07-12T20:04:32.857Z,59.78
2018-07-12T20:07:30.092Z,61.61
2018-07-12T20:10:27.318Z,61.78
2018-07-12T20:13:24.718Z,60.93
2018-07-12T20:16:21.871Z,61.75
2018-07-12T20:19:20.182Z,61.73
2018-07-12T20:22:17.978Z,61.81
2018-07-12T20:25:15.421Z,61.35
2018-07-12T20:28:13.547Z,61.52
2018-07-12T20:31:11.404Z,61.70
2018-07-12T20:34:08.579Z,61.07
2018-07-12T20:37:06.642Z,60.69
2018-07-12T20:40:04.725Z,61.79
2018-07-12T20:43:01.969Z,61.57
2018-07-12T20:45:59.869Z,60.99
2018-07-12T20:48:57.438Z,61.23
2018-07-12T20:51:55.007Z,61.89
2018-07-12T20:54:53.138Z,62.53
2018-07-12T20:57:50.457Z,62.78
2018-07-12T21:00:48.036Z,62.40
2018-07-12T21:03:46.036Z,62.90
2018-07-12T21:06:44.177Z,63.47
2018-07-12T21:09:41.772Z,63.89
2018-07-12T21:12:39.793Z,63.55
2018-07-12T21:15:37.190Z,63.71
2018-07-12T21:18:35.287Z,63.86
2018-07-12T21:21:33.400Z,62.84
2018-07-12T21:24:31.275Z,63.64
2018-07-12T21:27:29.240Z,62.73
2018-07-12T21:30:27.959Z,63.33
2018-07-12T21:33:25.905Z,64.25
2018-07-12T21:36:23.099Z,64.54
2018-07-12T21:39:21.786Z,64.47
2018-07-12T21:42:19.750Z,64.82
2018-07-12T21:45:17.295Z,64.70
2018-07-12T21:48:15.370Z,65.01
2018-07-12T21:51:13.321Z,65.04
2018-07-12T21:54:10.923Z,65.64
2018-07-12T21:57:08.882Z,65.57
2018-07-12T22:00:06.208Z,65.89
2018-07-12T22:03:03.320Z,65.52
2018-07-12T22:06:01.293Z,64.95
2018-07-12T22:08:58.568Z,65.18
2018-07-12T22:11:55.762Z,66.13
2018-07-12T22:14:53.760Z,66.26
2018-07-12T22:17:50.784Z,65.70
2018-07-12T22:20:48.487Z,65.91
2018-07-12T22:23:46.146Z,66.77
2018-07-12T22:26:43.484Z,66.77
2018-07-12T22:29:41.627Z,67.26
2018-07-12T22:32:38.886Z,67.96
2018-07-12T22:35:36.963Z,68.26
2018-07-12T22:38:34.359Z,68.39
2018-07-12T22:41:31.935Z,68.92
2018-07-12T22:44:29.488Z,68.79
2018-07-12T22:47:26.963Z,68.82
2018-07-12T22:50:24.643Z,67.81
2018-07-12T22:53:21.999Z,68.72
2018-07-12T22:56:19.042Z,69.13
2018-07-12T22:59:16.281Z,69.74
2018-07-12T23:02:14.776Z,69.63
2018-07-12T23:05:12.130Z,69.41
2018-07-12T23:08:09.420Z,69.13
2018-07-12T23:11:07.166Z,69.38
2018-07-12T23:14:04.504Z,67.83
2018-07-12T23:17:02.805Z,68.71
2018-07-12T23:20:09.730Z,69.05
2018-07-12T23:23:07.135Z,69.82
2018-07-12T23:26:05.314Z,69.31
2018-07-12T23:29:03.134Z,68.62
2018-07-12T23:32:00.957Z,69.80
2018-07-12T23:34:58.770Z,68.88
2018-07-12T23:37:55.850Z,68.77
2018-07-12T23:40:53.689Z,68.78
2018-07-12T23:43:51.330Z,70.74
2018-07-12T23:46:49.454Z,70.34
2018-07-12T23:49:47.676Z,70.23
2018-07-12T23:52:45.443Z,70.01
2018-07-12T23:55:43.402Z,70.09
2018-07-12T23:58:41.180Z,70.20
